sensor_id;sensor_type;location;lat;lon;timestamp;pressure;altitude;pressure_sealevel;temperature;humidity
10145;BME280;5113;41.822;23.564;2023-03-03T00:06:25;-11102.34;;;6.08;100.00
10145;BME280;5113;41.822;23.564;2023-03-03T00:09:31;-11103.31;;;6.11;100.00
10145;BME280;5113;41.822;23.564;2023-03-03T00:12:45;-11105.16;;;6.18;100.00
10145;BME280;5113;41.822;23.564;2023-03-03T00:15:54;-11104.03;;;6.14;100.00
10145;BME280;5113;41.822;23.564;2023-03-03T00:19:14;-11097.84;;;5.91;100.00
10145;BME280;5113;41.822;23.564;2023-03-03T00:22:27;-11098.25;;;5.93;100.00
10145;BME280;5113;41.822;23.564;2023-03-03T00:25:34;-11098.97;;;5.95;100.00
10145;BME280;5113;41.822;23.564;2023-03-03T00:28:44;-11095.31;;;5.82;100.00
10145;BME280;5113;41.822;23.564;2023-03-03T00:31:52;-11093.63;;;5.76;100.00
10145;BME280;5113;41.822;23.564;2023-03-03T00:35:01;-11095.16;;;5.82;100.00
10145;BME280;5113;41.822;23.564;2023-03-03T00:38:22;-11089.69;;;5.62;100.00
10145;BME280;5113;41.822;23.564;2023-03-03T00:41:28;-11094.59;;;5.80;100.00
10145;BME280;5113;41.822;23.564;2023-03-03T00:44:40;-11093.91;;;5.77;100.00
10145;BME280;5113;41.822;23.564;2023-03-03T00:47:49;-11098.13;;;5.92;100.00
10145;BME280;5113;41.822;23.564;2023-03-03T00:50:56;-11110.75;;;6.38;100.00
10145;BME280;5113;41.822;23.564;2023-03-03T00:54:02;-11109.22;;;6.33;100.00
10145;BME280;5113;41.822;23.564;2023-03-03T00:57:08;-11107.81;;;6.27;100.00
10145;BME280;5113;41.822;23.564;2023-03-03T01:00:16;-11113.16;;;6.47;100.00
10145;BME280;5113;41.822;23.564;2023-03-03T01:03:25;-11109.63;;;6.34;100.00
10145;BME280;5113;41.822;23.564;2023-03-03T01:06:31;-11108.66;;;6.31;100.00
10145;BME280;5113;41.822;23.564;2023-03-03T01:09:37;-11105.72;;;6.20;100.00
10145;BME280;5113;41.822;23.564;2023-03-03T01:12:44;-11106.28;;;6.22;100.00
10145;BME280;5113;41.822;23.564;2023-03-03T01:15:51;-11111.47;;;6.41;100.00
10145;BME280;5113;41.822;23.564;2023-03-03T01:18:59;-11109.78;;;6.35;100.00
10145;BME280;5113;41.822;23.564;2023-03-03T01:22:05;-11100.38;;;6.01;100.00
10145;BME280;5113;41.822;23.564;2023-03-03T01:25:12;-11104.72;;;6.16;100.00
10145;BME280;5113;41.822;23.564;2023-03-03T01:28:18;-11107.53;;;6.26;100.00
10145;BME280;5113;41.822;23.564;2023-03-03T01:31:24;-11109.06;;;6.32;100.00
10145;BME280;5113;41.822;23.564;2023-03-03T01:34:32;-11110.75;;;6.38;100.00
10145;BME280;5113;41.822;23.564;2023-03-03T01:37:38;-11104.88;;;6.17;100.00
10145;BME280;5113;41.822;23.564;2023-03-03T01:40:51;-11089.97;;;5.63;100.00
10145;BME280;5113;41.822;23.564;2023-03-03T01:43:58;-11093.91;;;5.77;100.00
10145;BME280;5113;41.822;23.564;2023-03-03T01:47:07;-11093.63;;;5.76;100.00
10145;BME280;5113;41.822;23.564;2023-03-03T01:50:27;-11095.59;;;5.83;100.00
10145;BME280;5113;41.822;23.564;2023-03-03T01:53:38;-11095.03;;;5.81;100.00
10145;BME280;5113;41.822;23.564;2023-03-03T01:56:48;-11095.03;;;5.81;100.00
10145;BME280;5113;41.822;23.564;2023-03-03T14:31:40;-11235.88;;;10.90;86.92
10145;BME280;5113;41.822;23.564;2023-03-03T14:34:56;-11227.00;;;10.58;87.26
10145;BME280;5113;41.822;23.564;2023-03-03T14:38:09;-11207.16;;;9.86;92.41
10145;BME280;5113;41.822;23.564;2023-03-03T14:41:20;-11213.22;;;10.08;89.66
10145;BME280;5113;41.822;23.564;2023-03-03T14:44:28;-11216.44;;;10.20;90.68
10145;BME280;5113;41.822;23.564;2023-03-03T14:47:38;-11208.84;;;9.92;94.82
10145;BME280;5113;41.822;23.564;2023-03-03T14:50:51;-11200.69;;;9.63;98.34
10145;BME280;5113;41.822;23.564;2023-03-03T14:53:58;-11185.50;;;9.08;100.00
10145;BME280;5113;41.822;23.564;2023-03-03T14:57:11;-11188.75;;;9.20;100.00
10145;BME280;5113;41.822;23.564;2023-03-03T15:00:29;-11184.53;;;9.05;100.00
10145;BME280;5113;41.822;23.564;2023-03-03T15:03:46;-11174.25;;;8.68;100.00
10145;BME280;5113;41.822;23.564;2023-03-03T15:06:54;-11176.78;;;8.77;100.00
10145;BME280;5113;41.822;23.564;2023-03-03T15:10:08;-11182.97;;;8.99;100.00
10145;BME280;5113;41.822;23.564;2023-03-03T15:13:33;-11195.34;;;9.44;97.31
10145;BME280;5113;41.822;23.564;2023-03-03T15:16:39;-11187.19;;;9.14;95.79
10145;BME280;5113;41.822;23.564;2023-03-03T15:19:56;-11159.09;;;8.13;100.00
10145;BME280;5113;41.822;23.564;2023-03-03T15:23:31;-11168.66;;;8.47;100.00
10145;BME280;5113;41.822;23.564;2023-03-03T15:26:44;-11168.09;;;8.45;100.00
10145;BME280;5113;41.822;23.564;2023-03-03T15:29:59;-11173.44;;;8.65;100.00
10145;BME280;5113;41.822;23.564;2023-03-03T15:33:16;-11169.34;;;8.50;100.00
10145;BME280;5113;41.822;23.564;2023-03-03T15:36:31;-11166.25;;;8.39;100.00
10145;BME280;5113;41.822;23.564;2023-03-03T15:39:44;-11164.44;;;8.32;100.00
10145;BME280;5113;41.822;23.564;2023-03-03T15:43:03;-11157.69;;;8.08;100.00
10145;BME280;5113;41.822;23.564;2023-03-03T15:46:20;-11151.22;;;7.84;100.00
10145;BME280;5113;41.822;23.564;2023-03-03T15:49:52;-11148.25;;;7.74;100.00
10145;BME280;5113;41.822;23.564;2023-03-03T15:53:14;-11148.69;;;7.75;100.00
10145;BME280;5113;41.822;23.564;2023-03-03T15:56:28;-11152.19;;;7.88;100.00
10145;BME280;5113;41.822;23.564;2023-03-03T15:59:48;-11151.91;;;7.87;100.00
10145;BME280;5113;41.822;23.564;2023-03-03T16:03:09;-11143.91;;;7.58;100.00
10145;BME280;5113;41.822;23.564;2023-03-03T16:06:21;-11153.19;;;7.91;100.00
10145;BME280;5113;41.822;23.564;2023-03-03T16:09:41;-11153.47;;;7.92;100.00
10145;BME280;5113;41.822;23.564;2023-03-03T16:12:58;-11157.13;;;8.06;100.00
10145;BME280;5113;41.822;23.564;2023-03-03T16:16:15;-11154.03;;;7.94;100.00
10145;BME280;5113;41.822;23.564;2023-03-03T16:19:31;-11156.69;;;8.04;100.00
10145;BME280;5113;41.822;23.564;2023-03-03T16:22:52;-11159.09;;;8.13;100.00
10145;BME280;5113;41.822;23.564;2023-03-03T16:26:09;-11155.84;;;8.01;100.00
10145;BME280;5113;41.822;23.564;2023-03-03T16:29:46;-11151.22;;;7.84;100.00
10145;BME280;5113;41.822;23.564;2023-03-03T16:33:08;-11153.31;;;7.92;100.00
10145;BME280;5113;41.822;23.564;2023-03-03T16:36:24;-11147.56;;;7.71;100.00
10145;BME280;5113;41.822;23.564;2023-03-03T16:39:42;-11142.78;;;7.54;100.00
10145;BME280;5113;41.822;23.564;2023-03-03T16:42:59;-11146.00;;;7.66;100.00
10145;BME280;5113;41.822;23.564;2023-03-03T16:46:20;-11147.84;;;7.72;100.00
10145;BME280;5113;41.822;23.564;2023-03-03T16:49:33;-11145.59;;;7.64;100.00
10145;BME280;5113;41.822;23.564;2023-03-03T16:52:46;-11139.41;;;7.42;100.00
10145;BME280;5113;41.822;23.564;2023-03-03T16:56:01;-11139.97;;;7.44;100.00
10145;BME280;5113;41.822;23.564;2023-03-03T16:59:33;-11133.94;;;7.22;100.00
10145;BME280;5113;41.822;23.564;2023-03-03T17:03:02;-11138.84;;;7.40;100.00
10145;BME280;5113;41.822;23.564;2023-03-03T17:06:22;-11131.13;;;7.12;100.00
10145;BME280;5113;41.822;23.564;2023-03-03T17:09:47;-11135.19;;;7.26;100.00
10145;BME280;5113;41.822;23.564;2023-03-03T17:13:13;-11127.63;;;6.99;100.00
10145;BME280;5113;41.822;23.564;2023-03-03T17:16:29;-11127.47;;;6.99;100.00
10145;BME280;5113;41.822;23.564;2023-03-03T17:20:13;-11121.84;;;6.78;100.00
10145;BME280;5113;41.822;23.564;2023-03-03T17:23:41;-11129.03;;;7.04;100.00
10145;BME280;5113;41.822;23.564;2023-03-03T17:26:59;-11125.22;;;6.90;100.00
10145;BME280;5113;41.822;23.564;2023-03-03T17:30:16;-11120.03;;;6.72;100.00
10145;BME280;5113;41.822;23.564;2023-03-03T17:33:35;-11123.53;;;6.84;100.00
10145;BME280;5113;41.822;23.564;2023-03-03T17:36:54;-11113.84;;;6.49;100.00
10145;BME280;5113;41.822;23.564;2023-03-03T17:40:16;-11116.09;;;6.57;100.00
10145;BME280;5113;41.822;23.564;2023-03-03T17:43:29;-11122.28;;;6.80;100.00
10145;BME280;5113;41.822;23.564;2023-03-03T17:46:42;-11116.25;;;6.58;100.00
10145;BME280;5113;41.822;23.564;2023-03-03T17:50:03;-11126.22;;;6.94;100.00
10145;BME280;5113;41.822;23.564;2023-03-03T17:53:32;-11124.25;;;6.87;100.00
10145;BME280;5113;41.822;23.564;2023-03-03T17:56:47;-11119.88;;;6.71;100.00
10145;BME280;5113;41.822;23.564;2023-03-03T18:00:14;-11124.53;;;6.88;100.00
10145;BME280;5113;41.822;23.564;2023-03-03T18:03:39;-11123.13;;;6.83;100.00
10145;BME280;5113;41.822;23.564;2023-03-03T18:07:12;-11118.63;;;6.67;100.00
10145;BME280;5113;41.822;23.564;2023-03-03T18:10:40;-11122.84;;;6.82;100.00
10145;BME280;5113;41.822;23.564;2023-03-03T18:17:45;-11122.13;;;6.79;100.00
10145;BME280;5113;41.822;23.564;2023-03-03T18:21:00;-11118.63;;;6.67;100.00
10145;BME280;5113;41.822;23.564;2023-03-03T18:24:38;-11122.56;;;6.81;100.00
10145;BME280;5113;41.822;23.564;2023-03-03T18:27:47;-11118.34;;;6.66;100.00
10145;BME280;5113;41.822;23.564;2023-03-03T18:31:24;-11117.09;;;6.61;100.00
10145;BME280;5113;41.822;23.564;2023-03-03T18:34:35;-11122.84;;;6.82;100.00
10145;BME280;5113;41.822;23.564;2023-03-03T18:37:43;-11116.94;;;6.60;100.00
10145;BME280;5113;41.822;23.564;2023-03-03T18:40:52;-11111.03;;;6.39;100.00
10145;BME280;5113;41.822;23.564;2023-03-03T18:44:02;-11110.47;;;6.37;100.00
10145;BME280;5113;41.822;23.564;2023-03-03T18:47:58;-11104.72;;;6.16;100.00
10145;BME280;5113;41.822;23.564;2023-03-03T18:51:07;-11102.75;;;6.09;100.00
10145;BME280;5113;41.822;23.564;2023-03-03T18:54:22;-11102.75;;;6.09;100.00
10145;BME280;5113;41.822;23.564;2023-03-03T18:57:36;-11101.22;;;6.04;100.00
10145;BME280;5113;41.822;23.564;2023-03-03T19:00:45;-11103.75;;;6.13;100.00
10145;BME280;5113;41.822;23.564;2023-03-03T19:04:02;-11091.94;;;5.70;100.00
10145;BME280;5113;41.822;23.564;2023-03-03T19:07:18;-11099.53;;;5.97;100.00
10145;BME280;5113;41.822;23.564;2023-03-03T19:10:51;-11096.16;;;5.85;100.00
10145;BME280;5113;41.822;23.564;2023-03-03T19:14:17;-11098.41;;;5.93;100.00
10145;BME280;5113;41.822;23.564;2023-03-03T19:17:44;-11102.91;;;6.10;100.00
10145;BME280;5113;41.822;23.564;2023-03-03T19:20:59;-11097.28;;;5.89;100.00
10145;BME280;5113;41.822;23.564;2023-03-03T19:24:24;-11088.84;;;5.59;100.00
10145;BME280;5113;41.822;23.564;2023-03-03T19:27:33;-11093.63;;;5.76;100.00
10145;BME280;5113;41.822;23.564;2023-03-03T19:30:48;-11101.78;;;6.06;100.00
10145;BME280;5113;41.822;23.564;2023-03-03T19:34:02;-11090.69;;;5.66;100.00
10145;BME280;5113;41.822;23.564;2023-03-03T19:37:22;-11091.81;;;5.70;100.00
10145;BME280;5113;41.822;23.564;2023-03-03T19:40:36;-11078.31;;;5.21;100.00
10145;BME280;5113;41.822;23.564;2023-03-03T19:43:57;-11079.31;;;5.24;100.00
10145;BME280;5113;41.822;23.564;2023-03-03T19:47:12;-11079.72;;;5.26;100.00
10145;BME280;5113;41.822;23.564;2023-03-03T19:50:31;-11075.38;;;5.10;100.00
10145;BME280;5113;41.822;23.564;2023-03-03T19:53:45;-11073.84;;;5.05;100.00
10145;BME280;5113;41.822;23.564;2023-03-03T19:56:56;-11070.31;;;4.92;100.00
10145;BME280;5113;41.822;23.564;2023-03-03T20:00:07;-11072.28;;;4.99;100.00
10145;BME280;5113;41.822;23.564;2023-03-03T20:03:46;-11074.25;;;5.06;100.00
10145;BME280;5113;41.822;23.564;2023-03-03T20:06:55;-11068.91;;;4.87;100.00
10145;BME280;5113;41.822;23.564;2023-03-03T20:10:27;-11071.31;;;4.95;100.00
10145;BME280;5113;41.822;23.564;2023-03-03T20:13:48;-11064.84;;;4.72;100.00
10145;BME280;5113;41.822;23.564;2023-03-03T20:17:11;-11060.78;;;4.57;100.00
10145;BME280;5113;41.822;23.564;2023-03-03T20:21:00;-11058.53;;;4.49;100.00
10145;BME280;5113;41.822;23.564;2023-03-03T20:24:26;-11058.53;;;4.49;100.00
10145;BME280;5113;41.822;23.564;2023-03-03T20:27:45;-11051.78;;;4.25;100.00
10145;BME280;5113;41.822;23.564;2023-03-03T20:31:00;-11057.41;;;4.45;100.00
10145;BME280;5113;41.822;23.564;2023-03-03T20:34:15;-11060.50;;;4.56;100.00
10145;BME280;5113;41.822;23.564;2023-03-03T20:37:35;-11049.69;;;4.17;100.00
10145;BME280;5113;41.822;23.564;2023-03-03T20:40:54;-11050.53;;;4.20;100.00
10145;BME280;5113;41.822;23.564;2023-03-03T20:44:14;-11036.94;;;3.71;100.00
10145;BME280;5113;41.822;23.564;2023-03-03T20:47:32;-11044.22;;;3.97;100.00
10145;BME280;5113;41.822;23.564;2023-03-03T20:50:51;-11038.06;;;3.75;100.00
10145;BME280;5113;41.822;23.564;2023-03-03T20:54:05;-11028.94;;;3.42;100.00
10145;BME280;5113;41.822;23.564;2023-03-03T20:57:20;-11032.84;;;3.56;100.00
10145;BME280;5113;41.822;23.564;2023-03-03T21:00:32;-11029.63;;;3.45;100.00
10145;BME280;5113;41.822;23.564;2023-03-03T21:03:41;-11030.06;;;3.46;100.00
10145;BME280;5113;41.822;23.564;2023-03-03T21:06:49;-11033.56;;;3.59;100.00
10145;BME280;5113;41.822;23.564;2023-03-03T21:10:10;-11037.06;;;3.72;100.00
10145;BME280;5113;41.822;23.564;2023-03-03T21:13:26;-11042.53;;;3.91;100.00
10145;BME280;5113;41.822;23.564;2023-03-03T21:16:33;-11035.25;;;3.65;100.00
10145;BME280;5113;41.822;23.564;2023-03-03T21:19:39;-11033.56;;;3.59;100.00
10145;BME280;5113;41.822;23.564;2023-03-03T21:22:46;-11038.88;;;3.78;100.00
10145;BME280;5113;41.822;23.564;2023-03-03T21:25:54;-11040.28;;;3.83;100.00
10145;BME280;5113;41.822;23.564;2023-03-03T21:29:00;-11034.25;;;3.61;100.00
10145;BME280;5113;41.822;23.564;2023-03-03T21:32:08;-11010.00;;;2.74;100.00
10145;BME280;5113;41.822;23.564;2023-03-03T21:35:16;-11013.38;;;2.86;100.00
10145;BME280;5113;41.822;23.564;2023-03-03T21:38:31;-10998.50;;;2.32;100.00
10145;BME280;5113;41.822;23.564;2023-03-03T21:41:51;-11012.25;;;2.82;100.00
10145;BME280;5113;41.822;23.564;2023-03-03T21:45:08;-11012.66;;;2.83;100.00
10145;BME280;5113;41.822;23.564;2023-03-03T21:48:14;-11019.25;;;3.07;100.00
10145;BME280;5113;41.822;23.564;2023-03-03T21:51:21;-11006.34;;;2.60;100.00
10145;BME280;5113;41.822;23.564;2023-03-03T21:54:29;-11003.41;;;2.50;100.00
10145;BME280;5113;41.822;23.564;2023-03-03T21:57:36;-11021.34;;;3.15;100.00
10145;BME280;5113;41.822;23.564;2023-03-03T22:00:43;-11012.25;;;2.82;100.00
10145;BME280;5113;41.822;23.564;2023-03-03T22:03:49;-11027.66;;;3.38;100.00
10145;BME280;5113;41.822;23.564;2023-03-03T22:06:56;-11033.56;;;3.59;100.00
10145;BME280;5113;41.822;23.564;2023-03-03T22:10:02;-11040.72;;;3.85;100.00
10145;BME280;5113;41.822;23.564;2023-03-03T22:13:10;-11040.72;;;3.85;100.00
10145;BME280;5113;41.822;23.564;2023-03-03T22:16:17;-11034.25;;;3.61;100.00
10145;BME280;5113;41.822;23.564;2023-03-03T22:19:24;-11027.81;;;3.38;100.00
10145;BME280;5113;41.822;23.564;2023-03-03T22:22:30;-11031.31;;;3.51;100.00
10145;BME280;5113;41.822;23.564;2023-03-03T22:25:36;-11033.84;;;3.60;100.00
10145;BME280;5113;41.822;23.564;2023-03-03T22:28:44;-11019.81;;;3.09;100.00
10145;BME280;5113;41.822;23.564;2023-03-03T22:31:50;-11003.41;;;2.50;100.00
10145;BME280;5113;41.822;23.564;2023-03-03T22:34:56;-11025.72;;;3.30;100.00
10145;BME280;5113;41.822;23.564;2023-03-03T22:38:03;-11010.28;;;2.75;100.00
10145;BME280;5113;41.822;23.564;2023-03-03T22:41:09;-11010.56;;;2.76;100.00
10145;BME280;5113;41.822;23.564;2023-03-03T22:44:17;-11017.84;;;3.02;100.00
10145;BME280;5113;41.822;23.564;2023-03-03T22:47:23;-11017.84;;;3.02;100.00
10145;BME280;5113;41.822;23.564;2023-03-03T22:50:30;-11024.88;;;3.27;100.00
10145;BME280;5113;41.822;23.564;2023-03-03T22:53:36;-11016.16;;;2.96;100.00
10145;BME280;5113;41.822;23.564;2023-03-03T22:56:42;-11018.13;;;3.03;100.00
10145;BME280;5113;41.822;23.564;2023-03-03T22:59:50;-10995.69;;;2.22;100.00
10145;BME280;5113;41.822;23.564;2023-03-03T23:02:56;-11005.78;;;2.58;100.00
10145;BME280;5113;41.822;23.564;2023-03-03T23:06:03;-11002.84;;;2.48;100.00
10145;BME280;5113;41.822;23.564;2023-03-03T23:09:09;-11016.44;;;2.97;100.00
10145;BME280;5113;41.822;23.564;2023-03-03T23:12:15;-11016.72;;;2.98;100.00
10145;BME280;5113;41.822;23.564;2023-03-03T23:15:23;-11011.81;;;2.80;100.00
10145;BME280;5113;41.822;23.564;2023-03-03T23:18:29;-11013.66;;;2.87;100.00
10145;BME280;5113;41.822;23.564;2023-03-03T23:21:35;-11004.94;;;2.55;100.00
10145;BME280;5113;41.822;23.564;2023-03-03T23:24:41;-11013.09;;;2.85;100.00
10145;BME280;5113;41.822;23.564;2023-03-03T23:27:48;-11015.03;;;2.92;100.00
10145;BME280;5113;41.822;23.564;2023-03-03T23:30:56;-11022.62;;;3.19;100.00
10145;BME280;5113;41.822;23.564;2023-03-03T23:34:02;-11019.94;;;3.10;100.00
10145;BME280;5113;41.822;23.564;2023-03-03T23:37:08;-11007.19;;;2.63;100.00
10145;BME280;5113;41.822;23.564;2023-03-03T23:40:15;-11011.81;;;2.80;100.00
10145;BME280;5113;41.822;23.564;2023-03-03T23:43:21;-11017.00;;;2.99;100.00
10145;BME280;5113;41.822;23.564;2023-03-03T23:46:29;-11023.47;;;3.22;100.00
10145;BME280;5113;41.822;23.564;2023-03-03T23:49:36;-11024.59;;;3.26;100.00
10145;BME280;5113;41.822;23.564;2023-03-03T23:52:42;-11019.81;;;3.09;100.00
10145;BME280;5113;41.822;23.564;2023-03-03T23:55:48;-11030.06;;;3.46;100.00
10145;BME280;5113;41.822;23.564;2023-03-03T23:58:55;-11026.41;;;3.33;100.00
